Time;durP1;ratioP1;P1;durP2;ratioP2;P2;SDS_P1;SDS_P2;PMS_P1;PMS_P2;Temp;Humidity;BMP_temperature;BMP_pressure;BME280_temperature;BME280_humidity;BME280_pressure;Samples;Min_cycle;Max_cycle;Signal;HPM_P1;HPM_P2
2023/08/02 00:02:18;;;;;;;;;;;;;;;;;;6274465;28;19947;-61
2023/08/02 00:05:19;;;;;;;;;;;;;;;;;;6271208;28;19939;-61
2023/08/02 00:08:20;;;;;;;;;;;;;;;;;;6273888;28;19932;-60
2023/08/02 00:11:20;;;;;;;;;;;;;;;;;;6277071;28;20022;-62
2023/08/02 00:14:21;;;;;;;;;;;;;;;;;;6273879;28;20367;-61
2023/08/02 00:17:21;;;;;;;;;;;;;;;;;;6274234;28;19920;-61
2023/08/02 00:20:22;;;;;;;;;;;;;;;;;;6273558;28;19920;-61
2023/08/02 00:23:22;;;;;;;;;;;;;;;;;;6270719;28;20181;-61
2023/08/02 00:26:22;;;;;;;;;;;;;;;;;;6272706;28;19928;-61
2023/08/02 00:29:23;;;;;;;;;;;;;;;;;;6271638;28;21128;-61
2023/08/02 00:32:23;;;;;;;;;;;;;;;;;;6271596;28;19929;-60
2023/08/02 00:35:24;;;;;;;;;;;;;;;;;;6270527;28;19931;-61
2023/08/02 00:38:24;;;;;;;;;;;;;;;;;;6274998;28;19938;-61
2023/08/02 00:41:25;;;;;;;;;;;;;;;;;;6276195;28;19929;-61
2023/08/02 00:44:25;;;;;;;;;;;;;;;;;;6272392;28;20469;-61
2023/08/02 00:47:26;;;;;;;;;;;;;;;;;;6274013;28;19930;-62
2023/08/02 00:50:29;;;;;;;;;;;;;;;;;;6269893;28;20633;-59
2023/08/02 00:53:29;;;;;;;;;;;;;;;;;;6272846;28;19969;-59
2023/08/02 00:56:30;;;;;;;;;;;;;;;;;;6272002;28;20038;-61
2023/08/02 00:59:30;;;;;;;;;;;;;;;;;;6272535;28;19928;-60
2023/08/02 01:02:31;;;;;;;;;;;;;;;;;;6269595;28;19924;-61
2023/08/02 01:05:34;;;;;;;;;;;;;;;;;;6269963;28;19928;-60
2023/08/02 01:08:36;;;;;;;;;;;;;;;;;;6274452;28;19943;-60
2023/08/02 01:11:39;;;;;;;;;;;;;;;;;;6273785;28;19942;-60
2023/08/02 01:14:43;;;;;;;;;;;;;;;;;;6268303;28;19928;-61
2023/08/02 01:17:43;;;;;;;;;;;;;;;;;;6271280;28;20026;-62
2023/08/02 01:20:44;;;;;;;;;;;;;;;;;;6270484;28;19964;-62
2023/08/02 01:23:44;;;;;;;;;;;;;;;;;;6269755;28;19928;-61
2023/08/02 01:26:48;;;;;;;;;;;;;;;;;;6273873;28;20696;-62
2023/08/02 01:29:50;;;;;;;;;;;;;;;;;;6273162;28;19936;-61
2023/08/02 01:32:53;;;;;;;;;;;;;;;;;;6268705;28;19928;-62
2023/08/02 01:35:54;;;;;;;;;;;;;;;;;;6271185;28;20578;-59
2023/08/02 01:38:54;;;;;;;;;;;;;;;;;;6278060;28;19924;-61
2023/08/02 01:41:55;;;;;;;;;;;;;;;;;;6281724;28;20409;-62
2023/08/02 01:44:55;;;;;;;;;;;;;;;;;;6276993;28;20422;-62
2023/08/02 01:47:56;;;;;;;;;;;;;;;;;;6276023;28;19924;-61
2023/08/02 01:50:57;;;;;;;;;;;;;;;;;;6277393;28;20373;-61
2023/08/02 01:53:57;;;;;;;;;;;;;;;;;;6279318;28;19920;-63
2023/08/02 01:56:58;;;;;;;;;;;;;;;;;;6276328;28;20439;-61
2023/08/02 01:59:58;;;;;;;;;;;;;;;;;;6286312;28;19927;-61
2023/08/02 02:02:59;;;;;;;;;;;;;;;;;;6279749;28;20406;-62
2023/08/02 02:05:59;;;;;;;;;;;;;;;;;;6284422;28;20252;-62
2023/08/02 02:09:00;;;;;;;;;;;;;;;;;;6278569;28;19996;-62
2023/08/02 02:12:00;;;;;;;;;;;;;;;;;;6278103;28;19921;-60
2023/08/02 02:15:01;;;;;;;;;;;;;;;;;;6270126;28;19938;-62
2023/08/02 02:18:02;;;;;;;;;;;;;;;;;;6272961;28;19971;-62
2023/08/02 02:21:02;;;;;;;;;;;;;;;;;;6274221;28;19935;-61
2023/08/02 02:24:03;;;;;;;;;;;;;;;;;;6264175;28;19925;-61
2023/08/02 02:27:04;;;;;;;;;;;;;;;;;;6258684;28;20371;-62
2023/08/02 02:30:05;;;;;;;;;;;;;;;;;;6267009;28;19924;-62
2023/08/02 02:33:05;;;;;;;;;;;;;;;;;;6262287;28;20054;-62
2023/08/02 02:36:06;;;;;;;;;;;;;;;;;;6246892;28;19929;-62
2023/08/02 02:39:07;;;;;;;;;;;;;;;;;;6251359;28;19931;-61
2023/08/02 02:42:07;;;;;;;;;;;;;;;;;;6250863;28;19928;-62
2023/08/02 02:45:08;;;;;;;;;;;;;;;;;;6250386;28;19921;-62
2023/08/02 02:48:08;;;;;;;;;;;;;;;;;;6251285;28;19921;-62
2023/08/02 02:51:09;;;;;;;;;;;;;;;;;;6248389;28;19921;-62
2023/08/02 02:54:09;;;;;;;;;;;;;;;;;;6255889;28;19932;-62
2023/08/02 02:57:10;;;;;;;;;;;;;;;;;;6255657;28;19935;-62
2023/08/02 03:00:10;;;;;;;;;;;;;;;;;;6265030;28;19920;-62
2023/08/02 03:03:11;;;;;;;;;;;;;;;;;;6251842;28;20023;-61
2023/08/02 03:06:12;;;;;;;;;;;;;;;;;;6249820;28;19925;-62
2023/08/02 03:09:12;;;;;;;;;;;;;;;;;;6250648;28;19924;-61
2023/08/02 03:12:12;;;;;;;;;;;;;;;;;;6249995;28;19949;-62
2023/08/02 03:15:13;;;;;;;;;;;;;;;;;;6249790;28;19939;-62
2023/08/02 03:18:14;;;;;;;;;;;;;;;;;;6249527;28;19929;-60
2023/08/02 03:21:14;;;;;;;;;;;;;;;;;;6249531;28;19956;-61
2023/08/02 03:24:15;;;;;;;;;;;;;;;;;;6252432;28;20409;-59
2023/08/02 03:27:15;;;;;;;;;;;;;;;;;;6248053;28;19930;-62
2023/08/02 03:30:16;;;;;;;;;;;;;;;;;;6248063;28;19936;-61
2023/08/02 03:33:16;;;;;;;;;;;;;;;;;;6262202;28;19924;-61
2023/08/02 03:36:17;;;;;;;;;;;;;;;;;;6282616;28;19924;-61
2023/08/02 03:39:17;;;;;;;;;;;;;;;;;;6302498;28;19924;-61
2023/08/02 03:42:18;;;;;;;;;;;;;;;;;;6300578;28;19931;-61
2023/08/02 03:45:18;;;;;;;;;;;;;;;;;;6298061;28;19938;-61
2023/08/02 03:48:19;;;;;;;;;;;;;;;;;;6299344;28;20010;-62
2023/08/02 03:51:19;;;;;;;;;;;;;;;;;;6299182;28;20287;-62
2023/08/02 03:54:20;;;;;;;;;;;;;;;;;;6298952;28;19927;-62
2023/08/02 03:57:20;;;;;;;;;;;;;;;;;;6298996;28;20487;-61
2023/08/02 04:00:21;;;;;;;;;;;;;;;;;;6298372;28;20759;-62
2023/08/02 04:03:21;;;;;;;;;;;;;;;;;;6299447;28;19920;-62
2023/08/02 04:06:22;;;;;;;;;;;;;;;;;;6306577;28;20278;-62
2023/08/02 04:09:22;;;;;;;;;;;;;;;;;;6295879;28;20321;-62
2023/08/02 04:12:23;;;;;;;;;;;;;;;;;;6295105;28;19932;-62
2023/08/02 04:15:23;;;;;;;;;;;;;;;;;;6301518;28;19971;-62
2023/08/02 04:18:24;;;;;;;;;;;;;;;;;;6307587;28;20107;-62
2023/08/02 04:21:24;;;;;;;;;;;;;;;;;;6307684;28;19921;-62
2023/08/02 04:24:25;;;;;;;;;;;;;;;;;;6303148;28;19920;-60
2023/08/02 04:27:25;;;;;;;;;;;;;;;;;;6303531;28;19985;-62
2023/08/02 04:30:26;;;;;;;;;;;;;;;;;;6309989;28;19924;-60
2023/08/02 04:33:26;;;;;;;;;;;;;;;;;;6300096;28;19928;-62
2023/08/02 04:36:27;;;;;;;;;;;;;;;;;;6309824;28;19924;-62
2023/08/02 04:39:27;;;;;;;;;;;;;;;;;;6305595;28;19924;-61
2023/08/02 04:42:28;;;;;;;;;;;;;;;;;;6310231;28;19931;-62
2023/08/02 04:45:29;;;;;;;;;;;;;;;;;;6311719;28;20309;-63
2023/08/02 04:48:29;;;;;;;;;;;;;;;;;;6308992;28;20358;-63
2023/08/02 04:51:31;;;;;;;;;;;;;;;;;;6302692;28;20336;-61
2023/08/02 04:54:31;;;;;;;;;;;;;;;;;;6307685;28;19965;-62
2023/08/02 04:57:32;;;;;;;;;;;;;;;;;;6314406;28;19924;-60
2023/08/02 05:00:32;;;;;;;;;;;;;;;;;;6306085;28;20585;-62
2023/08/02 05:03:33;;;;;;;;;;;;;;;;;;6296148;28;19973;-62
2023/08/02 05:06:34;;;;;;;;;;;;;;;;;;6291420;28;19924;-62
2023/08/02 05:09:35;;;;;;;;;;;;;;;;;;6291907;28;19977;-62
2023/08/02 05:12:37;;;;;;;;;;;;;;;;;;6290676;28;19928;-63
2023/08/02 05:15:38;;;;;;;;;;;;;;;;;;6292216;28;19931;-60
2023/08/02 05:18:38;;;;;;;;;;;;;;;;;;6305880;28;19924;-63
2023/08/02 05:21:39;;;;;;;;;;;;;;;;;;6309453;28;20287;-62
2023/08/02 05:24:40;;;;;;;;;;;;;;;;;;6302797;28;19936;-62
2023/08/02 05:27:41;;;;;;;;;;;;;;;;;;6305954;28;19969;-62
2023/08/02 05:30:41;;;;;;;;;;;;;;;;;;6305225;28;19925;-62
2023/08/02 05:33:42;;;;;;;;;;;;;;;;;;6311840;28;19965;-62
2023/08/02 05:36:42;;;;;;;;;;;;;;;;;;6303067;28;19920;-62
2023/08/02 05:39:42;;;;;;;;;;;;;;;;;;6302099;28;19920;-64
2023/08/02 05:42:43;;;;;;;;;;;;;;;;;;6304913;28;19920;-63
2023/08/02 05:45:44;;;;;;;;;;;;;;;;;;6308561;28;19920;-63
2023/08/02 05:48:44;;;;;;;;;;;;;;;;;;6313908;28;20375;-63
2023/08/02 05:51:45;;;;;;;;;;;;;;;;;;6297549;28;19968;-63
2023/08/02 05:54:45;;;;;;;;;;;;;;;;;;6312663;28;20565;-63
2023/08/02 05:57:48;;;;;;;;;;;;;;;;;;6302214;28;20400;-62
2023/08/02 06:00:48;;;;;;;;;;;;;;;;;;6302686;28;19924;-64
2023/08/02 06:03:49;;;;;;;;;;;;;;;;;;6294966;28;19925;-62
2023/08/02 06:06:49;;;;;;;;;;;;;;;;;;6303680;28;19927;-62
2023/08/02 06:09:50;;;;;;;;;;;;;;;;;;6296318;28;19931;-61
2023/08/02 06:12:50;;;;;;;;;;;;;;;;;;6276545;28;19924;-63
2023/08/02 06:15:51;;;;;;;;;;;;;;;;;;6295857;28;19973;-62
2023/08/02 06:18:51;;;;;;;;;;;;;;;;;;6294750;28;20390;-63
2023/08/02 06:21:52;;;;;;;;;;;;;;;;;;6297257;28;20010;-63
2023/08/02 06:24:52;;;;;;;;;;;;;;;;;;6295653;28;20021;-63
2023/08/02 06:27:53;;;;;;;;;;;;;;;;;;6296409;28;19945;-61
2023/08/02 06:30:53;;;;;;;;;;;;;;;;;;6298591;28;19920;-62
2023/08/02 06:33:54;;;;;;;;;;;;;;;;;;6300535;28;20014;-62
2023/08/02 06:36:54;;;;;;;;;;;;;;;;;;6302223;28;19927;-61
2023/08/02 06:39:55;;;;;;;;;;;;;;;;;;6299892;28;20381;-63
2023/08/02 06:42:55;;;;;;;;;;;;;;;;;;6299597;28;19931;-63
2023/08/02 06:45:59;;;;;;;;;;;;;;;;;;6298354;28;19934;-63
2023/08/02 06:48:59;;;;;;;;;;;;;;;;;;6302520;28;20301;-63
2023/08/02 06:52:00;;;;;;;;;;;;;;;;;;6298695;28;19924;-61
2023/08/02 06:55:01;;;;;;;;;;;;;;;;;;6300109;28;19924;-63
2023/08/02 06:58:01;;;;;;;;;;;;;;;;;;6299350;28;19997;-62
2023/08/02 07:01:10;;;;;;;;;;;;;;;;;;6302731;28;19920;-63
2023/08/02 07:04:10;;;;;;;;;;;;;;;;;;6296816;28;20377;-63
2023/08/02 07:07:11;;;;;;;;;;;;;;;;;;6299556;28;19977;-61
2023/08/02 07:10:11;;;;;;;;;;;;;;;;;;6298135;28;19928;-63
2023/08/02 07:13:12;;;;;;;;;;;;;;;;;;6297571;28;20403;-62
2023/08/02 07:16:12;;;;;;;;;;;;;;;;;;6300114;28;19960;-64
2023/08/02 07:19:13;;;;;;;;;;;;;;;;;;6299094;28;19931;-62
2023/08/02 07:22:17;;;;;;;;;;;;;;;;;;6296954;28;20507;-63
2023/08/02 07:25:17;;;;;;;;;;;;;;;;;;6297568;28;20003;-61
2023/08/02 07:28:18;;;;;;;;;;;;;;;;;;6299891;28;20405;-63
2023/08/02 07:31:18;;;;;;;;;;;;;;;;;;6298300;28;20283;-63
2023/08/02 07:34:19;;;;;;;;;;;;;;;;;;6299420;28;20264;-63
2023/08/02 07:37:19;;;;;;;;;;;;;;;;;;6301829;28;20276;-62
2023/08/02 07:40:20;;;;;;;;;;;;;;;;;;6293983;28;19977;-62
2023/08/02 07:43:20;;;;;;;;;;;;;;;;;;6299587;28;19924;-63
2023/08/02 07:46:22;;;;;;;;;;;;;;;;;;6299138;28;20030;-63
2023/08/02 07:49:22;;;;;;;;;;;;;;;;;;6293812;28;19950;-61
2023/08/02 07:52:23;;;;;;;;;;;;;;;;;;6298422;28;19935;-62
2023/08/02 07:55:23;;;;;;;;;;;;;;;;;;6301060;28;19924;-63
2023/08/02 07:58:24;;;;;;;;;;;;;;;;;;6299456;28;20355;-63
2023/08/02 08:01:24;;;;;;;;;;;;;;;;;;6300209;28;20332;-63
2023/08/02 08:04:25;;;;;;;;;;;;;;;;;;6296460;28;20348;-63
2023/08/02 08:07:25;;;;;;;;;;;;;;;;;;6297921;28;20346;-63
2023/08/02 08:10:26;;;;;;;;;;;;;;;;;;6300357;28;19940;-62
2023/08/02 08:13:26;;;;;;;;;;;;;;;;;;6297104;28;20379;-64
2023/08/02 08:16:27;;;;;;;;;;;;;;;;;;6296790;28;19928;-63
2023/08/02 08:19:27;;;;;;;;;;;;;;;;;;6305887;28;20275;-60
2023/08/02 08:22:29;;;;;;;;;;;;;;;;;;6298250;28;20408;-62
2023/08/02 08:25:30;;;;;;;;;;;;;;;;;;6299135;28;19936;-60
2023/08/02 08:28:31;;;;;;;;;;;;;;;;;;6299280;28;19923;-62
2023/08/02 08:31:32;;;;;;;;;;;;;;;;;;6295715;28;20390;-63
2023/08/02 08:34:33;;;;;;;;;;;;;;;;;;6297355;28;19920;-62
2023/08/02 08:37:33;;;;;;;;;;;;;;;;;;6297344;28;19921;-61
2023/08/02 08:40:34;;;;;;;;;;;;;;;;;;6278917;28;20282;-59
2023/08/02 08:43:35;;;;;;;;;;;;;;;;;;6296000;28;19927;-63
2023/08/02 08:46:36;;;;;;;;;;;;;;;;;;6297247;28;19926;-63
2023/08/02 08:49:36;;;;;;;;;;;;;;;;;;6295472;28;19989;-63
2023/08/02 08:52:39;;;;;;;;;;;;;;;;;;6295888;28;19931;-64
2023/08/02 08:55:40;;;;;;;;;;;;;;;;;;6297110;28;20370;-63
2023/08/02 08:58:41;;;;;;;;;;;;;;;;;;6296896;28;19927;-63
2023/08/02 09:01:43;;;;;;;;;;;;;;;;;;6294896;28;20283;-61
2023/08/02 09:04:44;;;;;;;;;;;;;;;;;;6296451;28;19930;-61
2023/08/02 09:07:44;;;;;;;;;;;;;;;;;;6298680;28;19924;-62
2023/08/02 09:10:45;;;;;;;;;;;;;;;;;;6299813;28;19939;-60
2023/08/02 09:13:45;;;;;;;;;;;;;;;;;;6295808;28;19928;-63
2023/08/02 09:16:56;;;;;;;;;;;;;;;;;;6296246;28;20480;-62
2023/08/02 09:20:09;;;;;;;;;;;;;;;;;;6294185;28;19986;-60
2023/08/02 09:23:15;;;;;;;;;;;;;;;;;;6295875;28;19923;-62
2023/08/02 09:26:17;;;;;;;;;;;;;;;;;;6295324;28;19920;-62
2023/08/02 09:29:18;;;;;;;;;;;;;;;;;;6298050;28;20014;-62
2023/08/02 09:32:21;;;;;;;;;;;;;;;;;;6295059;28;19928;-62
2023/08/02 09:35:22;;;;;;;;;;;;;;;;;;6295603;28;19938;-61
2023/08/02 09:38:23;;;;;;;;;;;;;;;;;;6297292;28;20713;-61
2023/08/02 09:41:24;;;;;;;;;;;;;;;;;;6298392;28;19924;-60
2023/08/02 09:44:24;;;;;;;;;;;;;;;;;;6294795;28;19931;-60
2023/08/02 09:47:26;;;;;;;;;;;;;;;;;;6295635;28;19928;-62
2023/08/02 09:50:27;;;;;;;;;;;;;;;;;;6294732;28;19927;-60
2023/08/02 09:53:27;;;;;;;;;;;;;;;;;;6296073;28;19939;-61
2023/08/02 09:56:28;;;;;;;;;;;;;;;;;;6297042;28;19931;-61
2023/08/02 09:59:30;;;;;;;;;;;;;;;;;;6297997;28;19923;-62
2023/08/02 10:02:30;;;;;;;;;;;;;;;;;;6277407;28;19924;-63
2023/08/02 10:05:32;;;;;;;;;;;;;;;;;;6304450;28;19966;-62
2023/08/02 10:08:33;;;;;;;;;;;;;;;;;;6300570;28;19920;-62
2023/08/02 10:11:54;;;;;;;;;;;;;;;;;;6300987;28;20393;-60
2023/08/02 10:14:55;;;;;;;;;;;;;;;;;;6304790;28;20294;-61
2023/08/02 10:17:58;;;;;;;;;;;;;;;;;;6306173;28;19924;-62
2023/08/02 10:21:00;;;;;;;;;;;;;;;;;;6301436;28;19931;-61
2023/08/02 10:24:00;;;;;;;;;;;;;;;;;;6300012;28;20027;-62
2023/08/02 10:27:02;;;;;;;;;;;;;;;;;;6298823;28;19921;-62
2023/08/02 10:30:04;;;;;;;;;;;;;;;;;;6300833;28;19946;-62
2023/08/02 10:33:12;;;;;;;;;;;;;;;;;;6299180;28;19924;-60
2023/08/02 10:36:13;;;;;;;;;;;;;;;;;;6300122;28;20011;-63
2023/08/02 10:39:13;;;;;;;;;;;;;;;;;;6298946;28;19931;-62
2023/08/02 10:42:14;;;;;;;;;;;;;;;;;;6298602;28;19927;-60
2023/08/02 10:45:15;;;;;;;;;;;;;;;;;;6300128;28;20270;-63
2023/08/02 10:48:25;;;;;;;;;;;;;;;;;;6302357;28;19960;-62
2023/08/02 10:51:37;;;;;;;;;;;;;;;;;;6317562;28;20022;-62
2023/08/02 10:54:38;;;;;;;;;;;;;;;;;;6302602;28;19924;-60
2023/08/02 10:57:40;;;;;;;;;;;;;;;;;;6300353;28;19969;-63
2023/08/02 11:00:40;;;;;;;;;;;;;;;;;;6300424;28;20030;-62
2023/08/02 11:03:41;;;;;;;;;;;;;;;;;;6299878;28;20366;-63
2023/08/02 11:06:42;;;;;;;;;;;;;;;;;;6300074;28;19920;-63
2023/08/02 11:09:42;;;;;;;;;;;;;;;;;;6299903;28;19931;-63
2023/08/02 11:12:50;;;;;;;;;;;;;;;;;;6300971;28;19924;-63
2023/08/02 11:16:03;;;;;;;;;;;;;;;;;;6297914;28;19924;-62
2023/08/02 11:19:08;;;;;;;;;;;;;;;;;;6299544;28;20007;-62
2023/08/02 11:22:08;;;;;;;;;;;;;;;;;;6298307;28;19921;-59
2023/08/02 11:25:17;;;;;;;;;;;;;;;;;;6298446;28;19920;-61
2023/08/02 11:28:19;;;;;;;;;;;;;;;;;;6297723;28;20587;-60
2023/08/02 11:31:24;;;;;;;;;;;;;;;;;;6297498;28;19928;-62
2023/08/02 11:34:26;;;;;;;;;;;;;;;;;;6297996;28;19920;-62
2023/08/02 11:37:27;;;;;;;;;;;;;;;;;;6296389;28;19985;-64
2023/08/02 11:40:35;;;;;;;;;;;;;;;;;;6296620;28;19971;-61
2023/08/02 11:43:36;;;;;;;;;;;;;;;;;;6298147;28;19928;-60
2023/08/02 11:46:37;;;;;;;;;;;;;;;;;;6299296;28;19924;-62
2023/08/02 11:49:50;;;;;;;;;;;;;;;;;;6298196;28;20218;-62
2023/08/02 11:52:51;;;;;;;;;;;;;;;;;;6298112;28;19919;-62
2023/08/02 11:55:51;;;;;;;;;;;;;;;;;;6295267;28;20046;-63
2023/08/02 11:58:52;;;;;;;;;;;;;;;;;;6296690;28;20262;-62
2023/08/02 12:01:53;;;;;;;;;;;;;;;;;;6298520;28;19924;-62
2023/08/02 12:04:54;;;;;;;;;;;;;;;;;;6294974;28;20605;-62
2023/08/02 12:08:06;;;;;;;;;;;;;;;;;;6303808;28;20316;-57
2023/08/02 12:11:13;;;;;;;;;;;;;;;;;;6303555;28;19932;-61
2023/08/02 12:14:25;;;;;;;;;;;;;;;;;;6308736;28;19938;-63
2023/08/02 12:17:26;;;;;;;;;;;;;;;;;;6305956;28;19984;-63
2023/08/02 12:20:30;;;;;;;;;;;;;;;;;;6305271;28;19927;-62
2023/08/02 12:23:32;;;;;;;;;;;;;;;;;;6302863;28;19981;-62
2023/08/02 12:26:33;;;;;;;;;;;;;;;;;;6305011;28;19931;-63
2023/08/02 12:29:35;;;;;;;;;;;;;;;;;;6306331;28;19970;-62
2023/08/02 12:32:35;;;;;;;;;;;;;;;;;;6300621;28;21841;-63
2023/08/02 12:35:41;;;;;;;;;;;;;;;;;;6304626;28;19928;-62
2023/08/02 12:38:42;;;;;;;;;;;;;;;;;;6305757;28;19931;-62
2023/08/02 12:41:42;;;;;;;;;;;;;;;;;;6300722;28;19952;-63
2023/08/02 12:44:43;;;;;;;;;;;;;;;;;;6288729;28;19934;-63
2023/08/02 12:47:43;;;;;;;;;;;;;;;;;;6305544;28;19928;-61
2023/08/02 12:50:44;;;;;;;;;;;;;;;;;;6304259;28;19928;-63
2023/08/02 12:53:44;;;;;;;;;;;;;;;;;;6306613;28;19931;-61
2023/08/02 12:56:45;;;;;;;;;;;;;;;;;;6300743;28;19966;-63
2023/08/02 12:59:45;;;;;;;;;;;;;;;;;;6305152;28;20638;-62
2023/08/02 13:02:46;;;;;;;;;;;;;;;;;;6303589;28;20082;-61
2023/08/02 13:05:46;;;;;;;;;;;;;;;;;;6302764;28;19928;-62
2023/08/02 13:08:47;;;;;;;;;;;;;;;;;;6306318;28;19924;-62
2023/08/02 13:11:47;;;;;;;;;;;;;;;;;;6299239;28;19920;-61
2023/08/02 13:14:48;;;;;;;;;;;;;;;;;;6306060;28;19926;-62
2023/08/02 13:17:48;;;;;;;;;;;;;;;;;;6309090;28;19924;-62
2023/08/02 13:20:49;;;;;;;;;;;;;;;;;;6306921;28;19924;-62
2023/08/02 13:23:49;;;;;;;;;;;;;;;;;;6307929;28;19973;-61
2023/08/02 13:26:50;;;;;;;;;;;;;;;;;;6306170;28;19932;-60
2023/08/02 13:29:50;;;;;;;;;;;;;;;;;;6305913;28;19970;-61
2023/08/02 13:32:51;;;;;;;;;;;;;;;;;;6302418;28;20275;-61
2023/08/02 13:35:51;;;;;;;;;;;;;;;;;;6306587;28;19931;-62
2023/08/02 13:38:52;;;;;;;;;;;;;;;;;;6301151;28;19927;-62
2023/08/02 13:41:52;;;;;;;;;;;;;;;;;;6301489;28;19961;-62
2023/08/02 13:44:56;;;;;;;;;;;;;;;;;;6303106;28;19928;-62
2023/08/02 13:47:57;;;;;;;;;;;;;;;;;;6304986;28;19924;-62
2023/08/02 13:50:57;;;;;;;;;;;;;;;;;;6307885;28;19920;-60
2023/08/02 13:53:58;;;;;;;;;;;;;;;;;;6299060;28;20352;-61
2023/08/02 13:56:58;;;;;;;;;;;;;;;;;;6302204;28;20369;-61
2023/08/02 13:59:59;;;;;;;;;;;;;;;;;;6305978;28;19928;-63
2023/08/02 14:02:59;;;;;;;;;;;;;;;;;;6302415;28;19943;-61
2023/08/02 14:06:01;;;;;;;;;;;;;;;;;;6302646;28;19935;-62
2023/08/02 14:09:03;;;;;;;;;;;;;;;;;;6306771;28;19965;-62
2023/08/02 14:12:03;;;;;;;;;;;;;;;;;;6302719;28;20534;-62
2023/08/02 14:15:04;;;;;;;;;;;;;;;;;;6304379;28;19932;-62
2023/08/02 14:18:05;;;;;;;;;;;;;;;;;;6305456;28;19969;-62
2023/08/02 14:21:07;;;;;;;;;;;;;;;;;;6299818;28;19927;-62
2023/08/02 14:24:07;;;;;;;;;;;;;;;;;;6301837;28;19928;-63
2023/08/02 14:27:10;;;;;;;;;;;;;;;;;;6302939;28;19935;-62
2023/08/02 14:30:10;;;;;;;;;;;;;;;;;;6302757;28;19981;-63
2023/08/02 14:33:11;;;;;;;;;;;;;;;;;;6303097;28;21197;-62
2023/08/02 14:36:11;;;;;;;;;;;;;;;;;;6305093;28;19931;-63
2023/08/02 14:39:12;;;;;;;;;;;;;;;;;;6288048;28;19923;-63
2023/08/02 14:42:12;;;;;;;;;;;;;;;;;;6302061;28;19928;-62
2023/08/02 14:45:13;;;;;;;;;;;;;;;;;;6303074;28;20434;-63
2023/08/02 14:48:13;;;;;;;;;;;;;;;;;;6304987;28;19934;-61
2023/08/02 14:51:14;;;;;;;;;;;;;;;;;;6305213;28;19928;-61
2023/08/02 14:54:14;;;;;;;;;;;;;;;;;;6305044;28;19927;-62
2023/08/02 14:57:15;;;;;;;;;;;;;;;;;;6310323;28;19927;-61
2023/08/02 15:00:15;;;;;;;;;;;;;;;;;;6298381;28;19927;-62
2023/08/02 15:03:16;;;;;;;;;;;;;;;;;;6305791;28;19927;-62
2023/08/02 15:06:16;;;;;;;;;;;;;;;;;;6309883;28;19928;-62
2023/08/02 15:09:17;;;;;;;;;;;;;;;;;;6308651;28;19965;-63
2023/08/02 15:12:17;;;;;;;;;;;;;;;;;;6308194;28;19927;-63
2023/08/02 15:15:18;;;;;;;;;;;;;;;;;;6312108;28;19920;-64
2023/08/02 15:18:18;;;;;;;;;;;;;;;;;;6315334;28;19920;-65
2023/08/02 15:21:19;;;;;;;;;;;;;;;;;;6313428;28;19927;-62
2023/08/02 15:24:19;;;;;;;;;;;;;;;;;;6317752;28;19924;-62
2023/08/02 15:27:20;;;;;;;;;;;;;;;;;;6321942;28;19924;-63
2023/08/02 15:30:20;;;;;;;;;;;;;;;;;;6319582;28;19923;-63
2023/08/02 15:33:21;;;;;;;;;;;;;;;;;;6312424;28;19924;-65
2023/08/02 15:36:21;;;;;;;;;;;;;;;;;;6316655;28;19920;-63
2023/08/02 15:39:22;;;;;;;;;;;;;;;;;;6316524;28;20427;-63
2023/08/02 15:42:24;;;;;;;;;;;;;;;;;;6319708;28;19927;-63
2023/08/02 15:45:24;;;;;;;;;;;;;;;;;;6315505;28;20379;-63
2023/08/02 15:48:25;;;;;;;;;;;;;;;;;;6313373;28;19928;-64
2023/08/02 15:51:27;;;;;;;;;;;;;;;;;;6314352;28;20018;-63
2023/08/02 15:54:27;;;;;;;;;;;;;;;;;;6315002;28;20902;-63
2023/08/02 15:57:28;;;;;;;;;;;;;;;;;;6314211;28;19927;-63
2023/08/02 16:00:28;;;;;;;;;;;;;;;;;;6321156;28;19927;-63
2023/08/02 16:03:29;;;;;;;;;;;;;;;;;;6313528;28;20450;-62
2023/08/02 16:06:29;;;;;;;;;;;;;;;;;;6314784;28;19976;-62
2023/08/02 16:09:30;;;;;;;;;;;;;;;;;;6320162;28;19927;-62
2023/08/02 16:12:30;;;;;;;;;;;;;;;;;;6316991;28;20006;-61
2023/08/02 16:15:31;;;;;;;;;;;;;;;;;;6324376;28;19924;-62
2023/08/02 16:18:32;;;;;;;;;;;;;;;;;;6318976;28;19969;-64
2023/08/02 16:21:32;;;;;;;;;;;;;;;;;;6312269;28;19950;-62
2023/08/02 16:24:33;;;;;;;;;;;;;;;;;;6323166;28;20650;-63
2023/08/02 16:27:33;;;;;;;;;;;;;;;;;;6315544;28;19927;-63
2023/08/02 16:30:35;;;;;;;;;;;;;;;;;;6318076;28;19935;-64
2023/08/02 16:33:35;;;;;;;;;;;;;;;;;;6317611;28;20048;-63
2023/08/02 16:36:36;;;;;;;;;;;;;;;;;;6315726;28;20086;-62
2023/08/02 16:39:36;;;;;;;;;;;;;;;;;;6310914;28;19927;-62
2023/08/02 16:42:37;;;;;;;;;;;;;;;;;;6316371;28;19928;-64
2023/08/02 16:45:39;;;;;;;;;;;;;;;;;;6314381;28;20073;-62
2023/08/02 16:48:40;;;;;;;;;;;;;;;;;;6316207;28;19948;-64
2023/08/02 16:51:41;;;;;;;;;;;;;;;;;;6312330;28;20297;-63
2023/08/02 16:54:41;;;;;;;;;;;;;;;;;;6315888;28;19923;-63
2023/08/02 16:57:42;;;;;;;;;;;;;;;;;;6316951;28;20287;-63
2023/08/02 17:00:42;;;;;;;;;;;;;;;;;;6317175;28;19928;-64
2023/08/02 17:03:43;;;;;;;;;;;;;;;;;;6314395;28;19928;-63
2023/08/02 17:06:44;;;;;;;;;;;;;;;;;;6315138;28;19928;-62
2023/08/02 17:09:44;;;;;;;;;;;;;;;;;;6312313;28;19934;-63
2023/08/02 17:12:44;;;;;;;;;;;;;;;;;;6309754;28;19934;-62
2023/08/02 17:15:45;;;;;;;;;;;;;;;;;;6320643;28;19966;-61
2023/08/02 17:18:46;;;;;;;;;;;;;;;;;;6310140;28;19924;-62
2023/08/02 17:21:46;;;;;;;;;;;;;;;;;;6306457;28;19935;-63
2023/08/02 17:24:47;;;;;;;;;;;;;;;;;;6312487;28;20337;-63
2023/08/02 17:27:48;;;;;;;;;;;;;;;;;;6316866;28;20387;-63
2023/08/02 17:30:48;;;;;;;;;;;;;;;;;;6315151;28;20464;-64
2023/08/02 17:33:49;;;;;;;;;;;;;;;;;;6309872;28;19928;-62
2023/08/02 17:36:50;;;;;;;;;;;;;;;;;;6317450;28;19928;-61
2023/08/02 17:39:54;;;;;;;;;;;;;;;;;;6294568;28;20383;-62
2023/08/02 17:42:54;;;;;;;;;;;;;;;;;;6309696;28;20613;-61
2023/08/02 17:45:55;;;;;;;;;;;;;;;;;;6320557;28;19924;-61
2023/08/02 17:48:55;;;;;;;;;;;;;;;;;;6315255;28;20378;-61
2023/08/02 17:51:56;;;;;;;;;;;;;;;;;;6308804;28;20470;-62
2023/08/02 17:54:56;;;;;;;;;;;;;;;;;;6318607;28;19942;-61
2023/08/02 17:57:57;;;;;;;;;;;;;;;;;;6313037;28;19935;-63
2023/08/02 18:01:09;;;;;;;;;;;;;;;;;;6323271;28;19931;-62
2023/08/02 18:04:12;;;;;;;;;;;;;;;;;;6311167;28;20303;-62
2023/08/02 18:07:13;;;;;;;;;;;;;;;;;;6315827;28;20015;-61
2023/08/02 18:10:13;;;;;;;;;;;;;;;;;;6316620;28;19927;-61
2023/08/02 18:13:14;;;;;;;;;;;;;;;;;;6312706;28;19923;-62
2023/08/02 18:16:15;;;;;;;;;;;;;;;;;;6317638;28;19921;-62
2023/08/02 18:19:15;;;;;;;;;;;;;;;;;;6298054;28;20712;-62
2023/08/02 18:22:15;;;;;;;;;;;;;;;;;;6314533;28;19928;-62
2023/08/02 18:25:17;;;;;;;;;;;;;;;;;;6324044;28;20692;-61
2023/08/02 18:28:18;;;;;;;;;;;;;;;;;;6318066;28;19924;-61
2023/08/02 18:31:18;;;;;;;;;;;;;;;;;;6320484;28;20803;-62
2023/08/02 18:34:19;;;;;;;;;;;;;;;;;;6319020;28;20438;-62
2023/08/02 18:37:19;;;;;;;;;;;;;;;;;;6322231;28;19932;-67
2023/08/02 18:40:20;;;;;;;;;;;;;;;;;;6315593;28;20449;-61
2023/08/02 18:43:23;;;;;;;;;;;;;;;;;;6313459;28;20371;-61
2023/08/02 18:46:23;;;;;;;;;;;;;;;;;;6318247;28;20363;-61
2023/08/02 18:49:24;;;;;;;;;;;;;;;;;;6317351;28;19931;-61
2023/08/02 18:52:26;;;;;;;;;;;;;;;;;;6315262;28;19928;-61
2023/08/02 18:55:27;;;;;;;;;;;;;;;;;;6307154;28;19928;-59
2023/08/02 18:58:30;;;;;;;;;;;;;;;;;;6305457;28;19950;-60
2023/08/02 19:01:30;;;;;;;;;;;;;;;;;;6293091;28;20332;-59
2023/08/02 19:04:35;;;;;;;;;;;;;;;;;;6297327;28;20583;-60
2023/08/02 19:07:37;;;;;;;;;;;;;;;;;;6302802;28;20519;-61
2023/08/02 19:10:37;;;;;;;;;;;;;;;;;;6304985;28;19928;-60
2023/08/02 19:13:38;;;;;;;;;;;;;;;;;;6298806;28;19931;-59
2023/08/02 19:16:38;;;;;;;;;;;;;;;;;;6302897;28;21380;-60
2023/08/02 19:19:40;;;;;;;;;;;;;;;;;;6309238;28;19931;-60
2023/08/02 19:22:41;;;;;;;;;;;;;;;;;;6313944;28;20014;-60
2023/08/02 19:25:44;;;;;;;;;;;;;;;;;;6318356;28;20032;-60
2023/08/02 19:28:46;;;;;;;;;;;;;;;;;;6308749;28;19928;-60
2023/08/02 19:31:46;;;;;;;;;;;;;;;;;;6308832;28;20052;-61
2023/08/02 19:34:48;;;;;;;;;;;;;;;;;;6309924;28;20432;-61
2023/08/02 19:37:49;;;;;;;;;;;;;;;;;;6313869;28;19924;-60
2023/08/02 19:40:53;;;;;;;;;;;;;;;;;;6305481;28;20477;-60
2023/08/02 19:43:53;;;;;;;;;;;;;;;;;;6309463;28;19939;-61
2023/08/02 19:46:54;;;;;;;;;;;;;;;;;;6314200;28;20022;-60
2023/08/02 19:49:55;;;;;;;;;;;;;;;;;;6314088;28;20026;-60
2023/08/02 19:52:55;;;;;;;;;;;;;;;;;;6312021;28;19965;-60
2023/08/02 19:55:56;;;;;;;;;;;;;;;;;;6315362;28;20366;-60
2023/08/02 19:59:00;;;;;;;;;;;;;;;;;;6313245;28;19928;-60
2023/08/02 20:02:03;;;;;;;;;;;;;;;;;;6313891;28;19923;-61
2023/08/02 20:05:16;;;;;;;;;;;;;;;;;;6315534;28;20018;-60
2023/08/02 20:08:21;;;;;;;;;;;;;;;;;;6318807;28;19938;-60
2023/08/02 20:11:22;;;;;;;;;;;;;;;;;;6311424;28;19928;-60
2023/08/02 20:14:23;;;;;;;;;;;;;;;;;;6309176;28;20255;-60
2023/08/02 20:17:24;;;;;;;;;;;;;;;;;;6315496;28;19919;-60
2023/08/02 20:20:24;;;;;;;;;;;;;;;;;;6308249;28;20075;-60
2023/08/02 20:23:25;;;;;;;;;;;;;;;;;;6303851;28;19931;-60
2023/08/02 20:26:26;;;;;;;;;;;;;;;;;;6309867;28;19931;-60
2023/08/02 20:29:27;;;;;;;;;;;;;;;;;;6303638;28;19943;-60
2023/08/02 20:32:27;;;;;;;;;;;;;;;;;;6300137;28;19920;-60
2023/08/02 20:35:28;;;;;;;;;;;;;;;;;;6302182;28;20386;-60
2023/08/02 20:38:29;;;;;;;;;;;;;;;;;;6305694;28;19924;-60